Time;durP1;ratioP1;P1;durP2;ratioP2;P2;SDS_P1;SDS_P2;PMS_P1;PMS_P2;Temp;Humidity;BMP_temperature;BMP_pressure;BME280_temperature;BME280_humidity;BME280_pressure;Samples;Min_cycle;Max_cycle;Signal;HPM_P1;HPM_P2
2022/11/08 00:03:41;;;;;;;31.65;21.10;;;;;;;7.73;100.00;101007.22;5026484;28;20520;-69
2022/11/08 00:14:18;;;;;;;32.70;21.45;;;;;;;7.78;100.00;101015.78;5025795;28;20423;-70
2022/11/08 00:16:44;;;;;;;35.97;22.25;;;;;;;7.77;100.00;101001.56;5026313;28;20112;-66
2022/11/08 00:19:09;;;;;;;33.42;21.25;;;;;;;7.80;100.00;101013.88;5021840;28;20120;-67
2022/11/08 00:21:35;;;;;;;34.70;21.13;;;;;;;7.78;100.00;101016.66;5023257;28;20026;-66
2022/11/08 00:24:00;;;;;;;34.60;22.17;;;;;;;7.75;100.00;101010.66;5025078;28;20044;-66
2022/11/08 00:26:26;;;;;;;28.98;20.65;;;;;;;7.66;100.00;100995.22;5025048;28;20041;-65
2022/11/08 00:28:51;;;;;;;34.58;21.42;;;;;;;7.72;100.00;101016.19;5026772;28;20029;-66
2022/11/08 00:31:17;;;;;;;33.35;22.02;;;;;;;7.70;100.00;101008.28;5029112;28;20029;-66
2022/11/08 00:33:42;;;;;;;31.92;20.88;;;;;;;7.72;100.00;101010.84;5030643;28;20496;-69
2022/11/08 00:36:08;;;;;;;32.78;22.25;;;;;;;7.67;100.00;101010.31;5029846;28;20029;-71
2022/11/08 00:38:33;;;;;;;32.92;21.17;;;;;;;7.65;100.00;101004.19;5030766;28;20049;-70
2022/11/08 00:40:59;;;;;;;32.72;21.20;;;;;;;7.62;100.00;101005.25;5030099;28;20087;-69
2022/11/08 00:43:24;;;;;;;29.50;20.17;;;;;;;7.55;100.00;100995.06;5029943;28;20086;-69
2022/11/08 00:45:50;;;;;;;31.55;20.73;;;;;;;7.59;100.00;101016.13;5029541;28;20056;-69
2022/11/08 00:48:15;;;;;;;30.23;20.88;;;;;;;7.58;100.00;101019.75;5028740;28;20096;-65
2022/11/08 00:50:40;;;;;;;31.27;21.73;;;;;;;7.57;100.00;101017.16;5027953;28;20031;-66
2022/11/08 00:53:06;;;;;;;37.58;21.35;;;;;;;7.55;100.00;101006.63;5028517;28;20021;-65
2022/11/08 00:55:32;;;;;;;35.85;22.23;;;;;;;7.56;100.00;101010.13;5026597;28;20033;-69
2022/11/08 00:57:57;;;;;;;31.98;20.73;;;;;;;7.57;100.00;101015.38;5028339;28;20038;-65
2022/11/08 01:00:23;;;;;;;29.20;19.70;;;;;;;7.57;100.00;101012.69;5027933;28;20025;-65
2022/11/08 01:03:17;;;;;;;31.83;20.83;;;;;;;7.54;100.00;101012.06;5027971;28;20038;-65
2022/11/08 01:05:36;;;;;;;29.55;20.25;;;;;;;7.51;100.00;101004.25;5026767;28;20053;-64
2022/11/08 01:08:01;;;;;;;33.38;21.27;;;;;;;7.48;100.00;101015.94;5027964;28;20393;-65
2022/11/08 01:10:27;;;;;;;31.58;20.83;;;;;;;7.38;100.00;100995.31;5027795;28;20048;-66
2022/11/08 01:12:52;;;;;;;31.20;20.63;;;;;;;7.34;100.00;101001.78;5028143;28;20041;-65
2022/11/08 01:15:18;;;;;;;28.70;19.73;;;;;;;7.30;100.00;100992.25;5027641;28;20021;-66
2022/11/08 01:17:43;;;;;;;30.33;19.63;;;;;;;7.32;100.00;101007.19;5027524;28;20540;-65
2022/11/08 01:20:09;;;;;;;31.90;20.42;;;;;;;7.25;100.00;101005.06;5027574;28;20473;-66
2022/11/08 01:22:34;;;;;;;30.85;19.08;;;;;;;7.24;100.00;101003.31;5028254;28;20026;-66
2022/11/08 01:25:00;;;;;;;24.83;17.65;;;;;;;7.20;100.00;100996.47;5027506;28;20017;-66
2022/11/08 01:27:25;;;;;;;29.33;19.48;;;;;;;7.13;100.00;100987.13;5027118;28;20037;-65
2022/11/08 01:29:50;;;;;;;32.08;19.38;;;;;;;7.12;100.00;100994.28;5027637;28;20017;-66
2022/11/08 01:32:16;;;;;;;28.38;18.50;;;;;;;7.09;100.00;100982.97;5025870;28;20025;-67
2022/11/08 01:34:41;;;;;;;30.08;18.58;;;;;;;7.07;100.00;100984.84;5027455;28;20021;-65
2022/11/08 01:37:06;;;;;;;32.90;18.88;;;;;;;7.03;100.00;100988.69;5028070;28;20552;-70
2022/11/08 01:39:32;;;;;;;28.52;17.25;;;;;;;6.99;100.00;100986.19;5028122;28;20025;-71
2022/11/08 01:41:57;;;;;;;29.23;18.50;;;;;;;6.87;100.00;100972.78;5026885;28;20033;-68
2022/11/08 01:44:23;;;;;;;28.38;18.20;;;;;;;6.78;100.00;100954.69;5027524;28;20120;-71
2022/11/08 01:46:49;;;;;;;30.55;18.83;;;;;;;6.81;100.00;100960.66;5026006;28;20028;-69
2022/11/08 01:49:29;;;;;;;28.95;18.48;;;;;;;6.87;100.00;100986.13;5027975;28;20029;-69
2022/11/08 01:52:11;;;;;;;32.05;19.63;;;;;;;6.84;100.00;100984.47;5028041;28;20029;-70
2022/11/08 01:54:57;;;;;;;30.90;18.52;;;;;;;6.80;100.00;100990.09;5026940;28;20519;-70
2022/11/08 01:57:30;;;;;;;29.05;18.92;;;;;;;6.71;100.00;100978.19;5027597;28;20048;-70
2022/11/08 01:59:59;;;;;;;29.92;18.30;;;;;;;6.75;100.00;100981.53;5026103;28;20108;-69
2022/11/08 02:02:25;;;;;;;30.17;18.23;;;;;;;6.70;100.00;100981.81;5028047;28;20025;-69
2022/11/08 02:04:51;;;;;;;30.00;19.25;;;;;;;6.67;100.00;100987.31;5028172;28;20079;-70
2022/11/08 02:07:17;;;;;;;33.72;19.92;;;;;;;6.52;100.00;100972.25;5027432;28;20132;-67
2022/11/08 02:09:45;;;;;;;29.90;18.92;;;;;;;6.59;100.00;100976.28;5027051;28;20029;-70
2022/11/08 02:12:12;;;;;;;33.63;20.30;;;;;;;6.57;100.00;100983.50;5026278;28;20021;-69
2022/11/08 02:14:38;;;;;;;32.92;20.20;;;;;;;6.49;100.00;100979.59;5028363;28;20439;-70
2022/11/08 02:17:05;;;;;;;36.13;19.35;;;;;;;6.45;100.00;100973.59;5027779;28;20112;-69
2022/11/08 02:19:49;;;;;;;34.88;19.20;;;;;;;6.47;100.00;100982.34;5027703;28;20116;-69
2022/11/08 02:22:25;;;;;;;35.72;19.92;;;;;;;6.41;100.00;100976.53;5027247;28;20392;-69
2022/11/08 02:24:51;;;;;;;32.53;19.30;;;;;;;6.42;100.00;100986.25;5027882;28;20029;-69
2022/11/08 02:27:17;;;;;;;31.27;19.08;;;;;;;6.40;100.00;100991.69;5027079;28;20037;-70
2022/11/08 02:29:42;;;;;;;31.20;18.55;;;;;;;6.39;100.00;100981.94;5027537;28;20052;-70
2022/11/08 02:32:10;;;;;;;33.38;19.23;;;;;;;6.37;100.00;100988.31;5027428;28;20021;-70
2022/11/08 02:34:38;;;;;;;30.45;18.00;;;;;;;6.35;100.00;100980.41;5025138;28;20025;-70
2022/11/08 02:37:05;;;;;;;31.33;18.73;;;;;;;6.32;100.00;100985.94;5025789;28;20477;-69
2022/11/08 02:39:31;;;;;;;30.65;18.77;;;;;;;6.31;100.00;100984.22;5026822;28;20030;-70
2022/11/08 02:41:57;;;;;;;31.10;18.52;;;;;;;6.29;100.00;100978.13;5025692;28;20026;-69
2022/11/08 02:44:23;;;;;;;29.75;17.67;;;;;;;6.31;100.00;100980.69;5025483;28;20074;-70
2022/11/08 02:46:48;;;;;;;27.30;17.33;;;;;;;6.28;100.00;100979.06;5029979;28;20079;-70
2022/11/08 02:49:13;;;;;;;26.65;17.25;;;;;;;6.16;100.00;100958.50;5026010;28;20120;-70
2022/11/08 02:51:39;;;;;;;27.23;17.25;;;;;;;6.30;100.00;100982.53;5023609;28;20092;-69
2022/11/08 02:54:04;;;;;;;24.23;16.45;;;;;;;6.30;100.00;100979.84;5025501;28;20049;-70
2022/11/08 02:56:30;;;;;;;28.35;16.83;;;;;;;6.26;100.00;100972.97;5024772;28;20438;-69
2022/11/08 02:58:55;;;;;;;24.23;16.10;;;;;;;6.27;100.00;100982.69;5026549;28;20041;-68
2022/11/08 03:01:21;;;;;;;24.60;16.73;;;;;;;6.25;100.00;100979.25;5025868;28;20377;-69
2022/11/08 03:03:46;;;;;;;23.27;16.80;;;;;;;6.23;100.00;100970.50;5025856;28;20063;-70
2022/11/08 03:06:12;;;;;;;20.13;15.65;;;;;;;6.21;100.00;100974.19;5025606;28;20046;-71
2022/11/08 03:08:37;;;;;;;26.33;17.10;;;;;;;6.18;100.00;100966.41;5026326;28;20135;-70
2022/11/08 03:11:02;;;;;;;25.20;16.08;;;;;;;6.20;100.00;100981.34;5025893;28;20033;-70
2022/11/08 03:13:28;;;;;;;29.75;17.00;;;;;;;6.08;100.00;100960.78;5024197;28;20055;-71
2022/11/08 03:15:53;;;;;;;26.02;16.77;;;;;;;6.16;100.00;100976.28;5024069;28;20029;-70
2022/11/08 03:18:19;;;;;;;23.05;16.00;;;;;;;6.03;100.00;100957.50;5024396;28;20017;-71
2022/11/08 03:20:44;;;;;;;21.73;15.30;;;;;;;6.14;100.00;100973.72;5024890;28;20037;-66
2022/11/08 03:23:09;;;;;;;26.10;16.88;;;;;;;6.13;100.00;100982.63;5025193;28;20021;-67
2022/11/08 03:25:35;;;;;;;22.92;16.70;;;;;;;6.13;100.00;100976.47;5024910;28;20025;-66
2022/11/08 03:28:02;;;;;;;21.98;15.82;;;;;;;6.13;100.00;100977.31;5023748;28;20059;-65
2022/11/08 03:30:28;;;;;;;23.55;15.40;;;;;;;6.15;100.00;100977.22;5022135;28;20060;-65
2022/11/08 03:32:53;;;;;;;24.05;16.15;;;;;;;6.13;100.00;100979.97;5026377;28;20049;-66
2022/11/08 03:35:19;;;;;;;23.67;16.30;;;;;;;6.09;100.00;100981.13;5026792;28;20041;-65
2022/11/08 03:37:51;;;;;;;21.17;15.25;;;;;;;6.12;100.00;100982.72;5025426;28;20029;-65
2022/11/08 03:40:17;;;;;;;22.13;15.80;;;;;;;6.10;100.00;100998.78;5025393;28;20037;-67
2022/11/08 03:42:43;;;;;;;23.08;15.88;;;;;;;6.09;100.00;100999.75;5025573;28;20091;-64
2022/11/08 03:45:10;;;;;;;22.02;14.93;;;;;;;6.09;100.00;100996.22;5025623;28;20025;-65
2022/11/08 03:47:40;;;;;;;20.40;15.00;;;;;;;6.08;100.00;100997.19;5027906;28;20108;-66
2022/11/08 03:50:07;;;;;;;23.27;14.82;;;;;;;6.04;100.00;100991.19;5023437;28;20025;-67
2022/11/08 03:52:43;;;;;;;23.70;15.52;;;;;;;6.04;100.00;100999.19;5024767;28;20489;-66
2022/11/08 03:55:10;;;;;;;23.77;16.08;;;;;;;6.00;100.00;100996.78;5025288;28;20112;-69
2022/11/08 03:57:37;;;;;;;21.25;15.50;;;;;;;6.04;100.00;100999.19;5025998;28;20052;-70
2022/11/08 04:00:04;;;;;;;23.17;15.85;;;;;;;6.08;100.00;101007.81;5028214;28;20026;-69
2022/11/08 04:02:29;;;;;;;24.65;17.10;;;;;;;6.05;100.00;100998.22;5027499;28;20025;-70
2022/11/08 04:04:54;;;;;;;25.23;16.40;;;;;;;6.05;100.00;100992.91;5029800;28;20026;-70
2022/11/08 04:07:20;;;;;;;22.42;15.07;;;;;;;6.05;100.00;100997.34;5031915;28;20048;-70
2022/11/08 04:09:45;;;;;;;27.63;16.65;;;;;;;6.06;100.00;101007.91;5030275;28;20037;-70
2022/11/08 04:23:07;;;;;;;25.50;15.88;;;;;;;6.02;100.00;101009.06;5025944;28;20119;-70
2022/11/08 04:25:32;;;;;;;28.98;16.25;;;;;;;6.04;100.00;101014.28;5028094;28;20041;-70
2022/11/08 04:27:58;;;;;;;27.05;16.42;;;;;;;6.00;100.00;101010.94;5026391;28;20037;-70
2022/11/08 04:30:23;;;;;;;26.83;15.90;;;;;;;5.97;100.00;101015.59;5026276;28;20017;-70
2022/11/08 04:32:49;;;;;;;26.58;16.60;;;;;;;5.96;100.00;101013.84;5026869;28;20052;-69
2022/11/08 04:35:14;;;;;;;25.75;15.82;;;;;;;5.90;100.00;101012.41;5026181;28;20056;-70
2022/11/08 04:37:40;;;;;;;26.48;16.38;;;;;;;5.87;100.00;101009.09;5027225;28;20440;-70
2022/11/08 04:40:06;;;;;;;23.15;15.70;;;;;;;5.84;100.00;101009.25;5027554;28;20477;-65
2022/11/08 04:42:31;;;;;;;28.40;15.40;;;;;;;5.80;100.00;101000.56;5027972;28;20022;-64
2022/11/08 04:44:56;;;;;;;21.38;14.65;;;;;;;5.78;100.00;101004.25;5027661;28;20447;-64
2022/11/08 04:47:22;;;;;;;23.80;15.80;;;;;;;5.75;100.00;100999.97;5027761;28;20056;-65
2022/11/08 04:49:47;;;;;;;25.13;16.38;;;;;;;5.68;100.00;100987.09;5028471;28;20029;-65
2022/11/08 04:52:14;;;;;;;27.00;15.38;;;;;;;5.67;100.00;101001.38;5028056;28;20063;-66
2022/11/08 04:54:43;;;;;;;24.00;15.38;;;;;;;5.69;100.00;101008.31;5029959;28;20076;-66
2022/11/08 04:57:09;;;;;;;26.35;16.23;;;;;;;5.68;100.00;101005.72;5028461;28;20048;-66
2022/11/08 04:59:35;;;;;;;24.95;15.07;;;;;;;5.64;100.00;101001.53;5028257;28;20558;-64
2022/11/08 05:02:00;;;;;;;24.30;16.17;;;;;;;5.59;100.00;100998.25;5026975;28;20029;-65
2022/11/08 05:04:26;;;;;;;24.05;14.80;;;;;;;5.66;100.00;101011.13;5026847;28;20040;-65
2022/11/08 05:06:51;;;;;;;26.67;16.25;;;;;;;5.65;100.00;101006.78;5027215;28;20056;-65
2022/11/08 05:09:16;;;;;;;26.15;15.75;;;;;;;5.61;100.00;101007.03;5026879;28;20021;-70
2022/11/08 05:11:42;;;;;;;26.58;16.10;;;;;;;5.60;100.00;101002.63;5026841;28;20036;-69
2022/11/08 05:14:07;;;;;;;31.00;16.65;;;;;;;5.54;100.00;101001.19;5027160;28;20041;-69
2022/11/08 05:16:33;;;;;;;28.35;16.30;;;;;;;5.57;100.00;101005.47;5025917;28;20041;-70
2022/11/08 05:18:58;;;;;;;24.70;16.20;;;;;;;5.47;100.00;100994.50;5024821;28;20159;-70
2022/11/08 05:24:11;;;;;;;24.55;14.40;;;;;;;5.34;100.00;100977.50;5025622;28;20056;-69
2022/11/08 05:26:41;;;;;;;23.08;14.23;;;;;;;5.46;100.00;100992.78;5022515;28;20029;-70
2022/11/08 05:29:07;;;;;;;20.65;13.80;;;;;;;5.41;100.00;100991.31;5025217;28;20031;-69
2022/11/08 05:31:33;;;;;;;20.80;13.63;;;;;;;5.45;100.00;101008.81;5026702;28;20041;-69
2022/11/08 05:33:59;;;;;;;21.38;14.88;;;;;;;5.44;100.00;101010.63;5026611;28;20033;-70
2022/11/08 05:36:25;;;;;;;22.65;14.18;;;;;;;5.42;100.00;100999.19;5026210;28;20036;-69
2022/11/08 05:38:50;;;;;;;23.80;14.15;;;;;;;5.41;100.00;101002.81;5026313;28;20108;-70
2022/11/08 05:41:19;;;;;;;23.33;14.07;;;;;;;5.35;100.00;100997.00;5027008;28;20116;-65
2022/11/08 05:43:47;;;;;;;22.10;13.68;;;;;;;5.43;100.00;101008.91;5026784;28;20035;-65
2022/11/08 05:46:13;;;;;;;22.15;14.15;;;;;;;5.39;100.00;101002.06;5026144;28;20080;-70
2022/11/08 05:48:41;;;;;;;23.02;13.80;;;;;;;5.41;100.00;101021.44;5027508;28;20672;-70
2022/11/08 05:51:07;;;;;;;17.35;12.38;;;;;;;5.40;100.00;101018.84;5028796;28;20496;-69
2022/11/08 05:53:32;;;;;;;18.90;13.32;;;;;;;5.38;100.00;101026.06;5026652;28;20264;-69
2022/11/08 05:56:01;;;;;;;18.80;12.65;;;;;;;5.35;100.00;101026.25;5028530;28;20036;-69
2022/11/08 05:58:27;;;;;;;16.45;11.98;;;;;;;5.23;100.00;101011.81;5028332;28;20078;-71
2022/11/08 06:01:07;;;;;;;18.48;13.40;;;;;;;5.32;100.00;101032.56;5028078;28;20052;-69
2022/11/08 06:03:33;;;;;;;24.27;14.23;;;;;;;5.25;100.00;101027.69;5028953;28;20499;-70
2022/11/08 06:06:04;;;;;;;18.63;12.45;;;;;;;5.22;100.00;101015.41;5027975;28;20041;-66
2022/11/08 06:08:30;;;;;;;21.85;12.77;;;;;;;5.23;100.00;101016.28;5027792;28;20112;-65
2022/11/08 06:11:11;;;;;;;19.25;13.15;;;;;;;5.27;100.00;101021.34;5028726;28;20108;-69
2022/11/08 06:13:38;;;;;;;21.13;13.63;;;;;;;5.36;100.00;101041.25;5028672;28;20065;-69
2022/11/08 06:16:06;;;;;;;21.50;14.07;;;;;;;5.35;100.00;101035.06;5029027;28;20025;-69
2022/11/08 06:18:32;;;;;;;22.70;14.13;;;;;;;5.39;100.00;101031.31;5025749;28;20131;-69
2022/11/08 06:20:59;;;;;;;24.15;15.02;;;;;;;5.43;100.00;101039.97;5024062;28;20037;-70
2022/11/08 06:23:26;;;;;;;24.73;14.57;;;;;;;5.43;100.00;101026.66;5027729;28;20435;-69
2022/11/08 06:25:51;;;;;;;29.35;16.05;;;;;;;5.47;100.00;101030.84;5027457;28;20044;-68
2022/11/08 06:28:17;;;;;;;28.70;15.32;;;;;;;5.51;100.00;101035.09;5027860;28;21911;-69
2022/11/08 06:30:42;;;;;;;24.67;15.77;;;;;;;5.60;100.00;101043.41;5027248;28;20471;-69
2022/11/08 06:33:08;;;;;;;28.02;15.18;;;;;;;5.63;100.00;101037.91;5028582;28;20040;-65
2022/11/08 06:35:34;;;;;;;33.38;16.05;;;;;;;5.68;100.00;101048.31;5027182;28;20033;-66
2022/11/08 06:38:01;;;;;;;23.15;15.13;;;;;;;5.71;100.00;101037.50;5025105;28;20033;-65
2022/11/08 06:40:26;;;;;;;26.75;15.27;;;;;;;5.75;100.00;101045.22;5027796;28;20037;-65
2022/11/08 06:42:52;;;;;;;29.30;16.85;;;;;;;5.80;100.00;101040.47;5026862;28;20044;-66
2022/11/08 06:45:18;;;;;;;26.23;16.05;;;;;;;5.85;100.00;101042.91;5027058;28;20112;-65
2022/11/08 06:47:44;;;;;;;27.10;15.32;;;;;;;5.80;100.00;101024.50;5027251;28;20029;-66
2022/11/08 06:50:09;;;;;;;26.50;16.17;;;;;;;5.96;100.00;101045.81;5027528;28;20036;-65
2022/11/08 06:52:34;;;;;;;31.02;17.80;;;;;;;5.96;100.00;101040.47;5027002;28;20031;-65
2022/11/08 06:55:00;;;;;;;33.13;18.48;;;;;;;6.04;100.00;101046.25;5026994;28;20029;-66
2022/11/08 06:57:25;;;;;;;32.38;18.27;;;;;;;6.10;100.00;101045.88;5026716;28;20025;-66
2022/11/08 06:59:51;;;;;;;33.10;18.38;;;;;;;6.12;100.00;101039.53;5027227;28;20040;-70
2022/11/08 07:02:16;;;;;;;33.05;20.42;;;;;;;6.22;100.00;101045.16;5027238;28;20171;-70
2022/11/08 07:04:41;;;;;;;35.45;21.52;;;;;;;6.31;100.00;101045.50;5027108;28;20091;-65
2022/11/08 07:07:08;;;;;;;34.08;21.70;;;;;;;6.34;100.00;101020.47;5027330;28;20057;-65
2022/11/08 07:09:33;;;;;;;32.05;20.80;;;;;;;6.48;100.00;101034.69;5026559;28;20043;-66
2022/11/08 07:11:59;;;;;;;42.97;23.90;;;;;;;6.55;100.00;101037.84;5026850;28;20048;-66
2022/11/08 07:14:24;;;;;;;37.33;23.45;;;;;;;6.65;100.00;101039.03;5026944;28;20022;-66
2022/11/08 07:16:50;;;;;;;46.83;24.00;;;;;;;6.73;100.00;101042.94;5026793;28;20072;-66
2022/11/08 07:19:15;;;;;;;42.38;23.98;;;;;;;6.82;100.00;101041.50;5026683;28;20375;-65
2022/11/08 07:21:41;;;;;;;36.10;22.17;;;;;;;6.92;100.00;101040.88;5027069;28;20033;-65
2022/11/08 07:24:06;;;;;;;38.30;22.38;;;;;;;7.04;100.00;101041.91;5027040;28;20025;-65
2022/11/08 07:26:31;;;;;;;38.53;21.52;;;;;;;7.14;100.00;101037.72;5026488;28;20438;-64
2022/11/08 07:28:57;;;;;;;37.80;21.15;;;;;;;7.24;100.00;101030.84;5026763;28;20029;-64
2022/11/08 07:31:22;;;;;;;34.83;20.40;;;;;;;7.43;100.00;101043.88;5026351;28;20037;-65
2022/11/08 07:33:48;;;;;;;31.52;19.73;;;;;;;7.59;100.00;101047.31;5025778;28;20040;-65
2022/11/08 07:36:14;;;;;;;33.95;21.48;;;;;;;7.67;100.00;101037.84;5025379;28;20543;-65
2022/11/08 07:38:40;;;;;;;32.25;19.85;;;;;;;7.83;100.00;101045.75;5026333;28;20079;-65
2022/11/08 07:41:05;;;;;;;35.70;20.70;;;;;;;7.91;100.00;101038.06;5028220;28;20036;-65
2022/11/08 07:43:31;;;;;;;34.63;20.55;;;;;;;8.06;100.00;101051.25;5030582;28;20684;-69
2022/11/08 07:45:59;;;;;;;32.92;20.95;;;;;;;8.17;100.00;101046.09;5030378;28;20540;-65
2022/11/08 07:48:26;;;;;;;32.65;20.90;;;;;;;8.25;100.00;101046.44;5030715;28;20400;-65
2022/11/08 07:50:52;;;;;;;35.85;22.13;;;;;;;8.41;100.00;101041.78;5030865;28;20032;-65
2022/11/08 07:53:18;;;;;;;34.13;21.60;;;;;;;8.47;100.00;101032.50;5030388;28;20025;-65
2022/11/08 07:55:45;;;;;;;35.08;21.85;;;;;;;8.62;100.00;101042.16;5030140;28;20492;-65
2022/11/08 07:58:11;;;;;;;36.33;22.77;;;;;;;8.75;100.00;101032.34;5030818;28;20094;-65
2022/11/08 08:00:38;;;;;;;41.30;23.95;;;;;;;8.81;100.00;101032.75;5031216;28;20037;-65
2022/11/08 08:03:06;;;;;;;41.45;25.08;;;;;;;8.84;100.00;101016.50;5030727;28;20033;-65
2022/11/08 08:05:34;;;;;;;35.97;22.45;;;;;;;9.03;100.00;101029.47;5029770;28;20075;-65
2022/11/08 08:08:01;;;;;;;37.65;22.65;;;;;;;9.12;100.00;101031.47;5030907;28;20033;-66
2022/11/08 08:10:28;;;;;;;42.95;25.50;;;;;;;9.25;100.00;101041.22;5030409;28;20443;-65
2022/11/08 08:12:54;;;;;;;45.72;25.45;;;;;;;9.33;100.00;101036.16;5028101;28;20029;-65
2022/11/08 08:15:20;;;;;;;39.47;25.27;;;;;;;9.42;100.00;101040.03;5029250;28;20036;-65
2022/11/08 08:17:45;;;;;;;40.13;24.67;;;;;;;9.40;100.00;101025.88;5030195;28;20045;-65
2022/11/08 08:20:12;;;;;;;40.83;26.48;;;;;;;9.60;100.00;101032.47;5029006;28;20021;-66
2022/11/08 08:22:43;;;;;;;38.22;25.45;;;;;;;9.60;100.00;101022.59;5027740;28;20049;-65
2022/11/08 08:25:08;;;;;;;44.30;28.55;;;;;;;9.76;100.00;101033.06;5026974;28;20036;-65
2022/11/08 08:27:34;;;;;;;48.55;29.92;;;;;;;9.88;100.00;101033.03;5028489;28;20025;-65
2022/11/08 08:29:59;;;;;;;43.90;29.73;;;;;;;9.95;100.00;101036.09;5029985;28;20083;-65
2022/11/08 08:32:25;;;;;;;48.90;29.05;;;;;;;10.06;100.00;101037.03;5029454;28;20042;-65
2022/11/08 08:34:50;;;;;;;44.97;29.83;;;;;;;10.14;100.00;101037.34;5029505;28;20040;-65
2022/11/08 08:37:16;;;;;;;46.60;27.00;;;;;;;10.22;100.00;101032.25;5028880;28;20026;-65
2022/11/08 08:39:41;;;;;;;43.00;27.00;;;;;;;10.17;100.00;101015.69;5029727;28;20025;-65
2022/11/08 08:42:07;;;;;;;42.20;26.75;;;;;;;10.36;100.00;101034.78;5029422;28;20449;-66
2022/11/08 08:44:32;;;;;;;41.88;25.02;;;;;;;10.44;100.00;101029.66;5029383;28;20413;-66
2022/11/08 08:46:58;;;;;;;41.92;25.52;;;;;;;10.53;100.00;101045.06;5029116;28;20114;-66
2022/11/08 08:49:24;;;;;;;46.75;26.60;;;;;;;10.61;100.00;101031.91;5028939;28;20059;-65
2022/11/08 08:51:49;;;;;;;39.30;24.50;;;;;;;10.63;100.00;101031.78;5028174;28;20022;-65
2022/11/08 08:54:14;;;;;;;36.17;24.10;;;;;;;10.69;100.00;101029.50;5029012;28;20033;-65
2022/11/08 08:56:40;;;;;;;35.25;22.77;;;;;;;10.83;100.00;101033.78;5029142;28;20484;-65
2022/11/08 08:59:05;;;;;;;38.55;23.48;;;;;;;10.87;100.00;101033.44;5029341;28;20029;-65
2022/11/08 09:01:31;;;;;;;34.15;22.92;;;;;;;10.95;100.00;101044.44;5028904;28;20037;-66
2022/11/08 09:03:57;;;;;;;45.53;25.50;;;;;;;11.05;100.00;101044.56;5027824;28;20053;-69
2022/11/08 09:06:23;;;;;;;35.20;24.27;;;;;;;11.14;100.00;101050.09;5028488;28;20043;-69
2022/11/08 09:08:48;;;;;;;39.92;25.42;;;;;;;11.25;100.00;101054.59;5028929;28;20029;-70
2022/11/08 09:11:14;;;;;;;39.30;24.63;;;;;;;11.23;100.00;101033.22;5028816;28;20071;-69
2022/11/08 09:13:39;;;;;;;43.75;25.08;;;;;;;11.40;100.00;101051.56;5029367;28;20033;-69
2022/11/08 09:16:06;;;;;;;40.28;24.38;;;;;;;11.47;100.00;101050.09;5028446;28;20021;-69
2022/11/08 09:18:32;;;;;;;38.45;25.50;;;;;;;11.57;100.00;101053.75;5028620;28;20413;-69
2022/11/08 09:20:59;;;;;;;41.47;25.85;;;;;;;11.65;100.00;101058.56;5028647;28;20036;-69
2022/11/08 09:23:24;;;;;;;38.05;24.15;;;;;;;11.72;100.00;101054.38;5028527;28;20021;-70
2022/11/08 09:25:56;;;;;;;39.20;24.88;;;;;;;11.82;100.00;101062.53;5028418;28;20035;-69
2022/11/08 09:28:21;;;;;;;40.25;25.73;;;;;;;11.83;100.00;101053.53;5030847;28;20033;-69
2022/11/08 09:30:47;;;;;;;37.53;23.77;;;;;;;11.98;100.00;101058.50;5028948;28;20436;-69
2022/11/08 09:33:12;;;;;;;38.72;21.90;;;;;;;12.07;100.00;101054.19;5029057;28;20144;-69
2022/11/08 09:35:37;;;;;;;36.13;22.73;;;;;;;12.14;100.00;101041.94;5028380;28;20029;-69
2022/11/08 09:38:03;;;;;;;37.75;23.75;;;;;;;12.25;100.00;101048.13;5028077;28;20037;-69
2022/11/08 09:40:31;;;;;;;38.17;24.08;;;;;;;12.36;100.00;101037.38;5028708;28;20064;-69
2022/11/08 09:43:35;;;;;;;39.92;22.70;;;;;;;12.49;100.00;101042.56;5028262;28;20551;-69
2022/11/08 09:46:00;;;;;;;36.83;21.92;;;;;;;12.64;100.00;101038.56;4966415;28;20110;-69
2022/11/08 09:48:34;;;;;;;33.28;21.73;;;;;;;12.75;100.00;101035.81;4967054;28;20146;-70
2022/11/08 09:51:08;;;;;;;37.63;21.55;;;;;;;12.89;100.00;101039.03;4997372;28;20048;-69
2022/11/08 09:53:39;;;;;;;;;;;;;;;12.98;100.00;101043.63;5028556;28;20048;-69
2022/11/08 09:56:20;;;;;;;36.10;21.35;;;;;;;13.07;100.00;101050.97;5027983;28;19928;-69
2022/11/08 09:59:01;;;;;;;34.22;21.88;;;;;;;13.15;100.00;101044.88;5028316;28;20072;-68
2022/11/08 10:01:32;;;;;;;36.05;22.35;;;;;;;13.31;99.79;101039.84;5026262;28;20426;-68
2022/11/08 10:04:04;;;;;;;36.22;22.85;;;;;;;13.28;99.77;101035.59;5028002;28;20077;-68
2022/11/08 10:07:01;;;;;;;35.15;22.55;;;;;;;13.36;100.00;101033.09;5027405;28;20619;-69
2022/11/08 10:09:26;;;;;;;34.53;23.42;;;;;;;13.44;100.00;101033.25;5026238;28;20508;-69
2022/11/08 10:12:17;;;;;;;33.42;22.00;;;;;;;13.51;100.00;101033.56;5027983;28;20060;-69
2022/11/08 10:15:24;;;;;;;32.47;21.55;;;;;;;13.60;99.69;101032.75;5027883;28;20037;-68
2022/11/08 10:18:24;;;;;;;30.95;21.83;;;;;;;13.66;99.23;101033.06;5003464;28;20037;-68
2022/11/08 10:21:13;;;;;;;36.42;22.50;;;;;;;13.76;99.31;101030.38;5000954;28;20513;-69
2022/11/08 10:23:45;;;;;;;37.25;23.45;;;;;;;13.83;98.35;101018.06;5026989;28;20053;-69
2022/11/08 10:26:18;;;;;;;35.28;23.13;;;;;;;13.93;98.22;101028.88;5027577;28;20461;-69
2022/11/08 10:28:52;;;;;;;34.72;22.52;;;;;;;13.95;97.99;101025.06;5027776;28;20118;-69
2022/11/08 10:31:19;;;;;;;38.53;24.42;;;;;;;14.00;98.20;101019.25;5027328;28;20029;-69
2022/11/08 10:33:53;;;;;;;37.10;21.90;;;;;;;14.05;98.00;101022.34;5027675;28;20039;-68
2022/11/08 10:36:37;;;;;;;35.17;22.45;;;;;;;14.16;96.16;101025.81;5026697;28;20037;-69
2022/11/08 10:39:02;;;;;;;36.40;23.55;;;;;;;14.20;96.46;101016.44;5025645;28;20369;-69
2022/11/08 10:42:10;;;;;;;35.67;23.45;;;;;;;14.18;96.61;101015.72;5027440;28;20033;-69
2022/11/08 10:44:35;;;;;;;34.75;23.17;;;;;;;14.12;96.41;100997.38;5024477;28;20064;-69
2022/11/08 10:47:05;;;;;;;36.03;24.15;;;;;;;14.24;96.26;101009.78;5027169;28;20437;-69
2022/11/08 10:49:38;;;;;;;36.58;23.60;;;;;;;14.27;96.20;101008.63;5027036;28;20033;-69
2022/11/08 10:52:31;;;;;;;36.55;22.75;;;;;;;14.30;95.91;101001.13;5027211;28;20104;-68
2022/11/08 10:54:58;;;;;;;35.30;23.25;;;;;;;14.34;95.37;101007.94;5026777;28;20025;-69
2022/11/08 10:57:36;;;;;;;37.35;22.55;;;;;;;14.32;95.07;101004.53;5026957;28;20028;-69
2022/11/08 11:00:17;;;;;;;36.47;24.38;;;;;;;14.32;95.06;100993.72;5027260;28;20515;-69
2022/11/08 11:02:45;;;;;;;34.53;23.63;;;;;;;14.31;95.15;100997.44;5027248;28;20071;-70
2022/11/08 11:05:22;;;;;;;32.55;22.23;;;;;;;14.34;95.31;100989.06;5025685;28;20037;-69
2022/11/08 11:08:02;;;;;;;37.75;23.63;;;;;;;14.37;95.51;100994.16;5027272;28;20052;-69
2022/11/08 11:10:27;;;;;;;40.97;25.20;;;;;;;14.39;95.90;100988.63;5026650;28;20159;-69
2022/11/08 11:13:02;;;;;;;38.42;24.67;;;;;;;14.42;95.56;100988.34;5026453;28;20112;-69
2022/11/08 11:15:38;;;;;;;37.28;24.63;;;;;;;14.43;95.03;100985.50;5027069;28;20046;-69
2022/11/08 11:18:16;;;;;;;41.33;25.48;;;;;;;14.45;94.02;100979.97;5027003;28;20691;-69
2022/11/08 11:20:41;;;;;;;39.42;27.40;;;;;;;14.36;94.62;100965.47;5027111;28;20068;-70
2022/11/08 11:23:10;;;;;;;41.83;25.70;;;;;;;14.39;94.88;100967.03;5026564;28;20064;-69
2022/11/08 11:25:35;;;;;;;38.58;25.83;;;;;;;14.44;95.00;100972.88;5026462;28;20079;-70
2022/11/08 11:28:02;;;;;;;40.70;27.52;;;;;;;14.45;94.62;100971.88;5026676;28;20025;-68
2022/11/08 11:30:33;;;;;;;37.60;24.42;;;;;;;14.47;94.68;100975.25;5028005;28;20044;-69
2022/11/08 11:33:22;;;;;;;34.83;24.40;;;;;;;14.50;93.74;100983.94;5026558;28;20068;-69
2022/11/08 11:35:59;;;;;;;37.60;24.73;;;;;;;14.47;93.72;100970.72;5026032;28;20038;-70
2022/11/08 11:38:38;;;;;;;39.28;25.42;;;;;;;14.53;93.61;100975.53;5027443;28;20021;-68